Time;durP1;ratioP1;P1;durP2;ratioP2;P2;SDS_P1;SDS_P2;PMS_P1;PMS_P2;Temp;Humidity;BMP_temperature;BMP_pressure;BME280_temperature;BME280_humidity;BME280_pressure;Samples;Min_cycle;Max_cycle;Signal;HPM_P1;HPM_P2
2022/05/25 00:01:33;;;;;;;3.22;1.33;;;13.40;99.90;;;;;;5033058;28;20029;-66
2022/05/25 00:04:01;;;;;;;4.13;1.10;;;13.40;99.90;;;;;;5033061;28;20436;-66
2022/05/25 00:06:28;;;;;;;3.08;0.90;;;13.40;99.90;;;;;;5032764;28;20033;-66
2022/05/25 00:08:54;;;;;;;3.95;0.93;;;13.40;99.90;;;;;;5032750;28;20129;-66
2022/05/25 00:11:20;;;;;;;2.47;0.90;;;13.30;99.90;;;;;;5033105;28;20026;-66
2022/05/25 00:13:46;;;;;;;2.75;0.90;;;13.40;99.90;;;;;;5033098;28;20183;-66
2022/05/25 00:16:13;;;;;;;1.92;1.02;;;13.30;99.90;;;;;;5032712;28;20339;-66
2022/05/25 00:19:58;;;;;;;4.88;1.10;;;13.30;99.90;;;;;;5032698;28;20022;-65
2022/05/25 00:21:25;;;;;;;4.22;0.80;;;13.20;99.90;;;;;;5032513;28;20034;-65
2022/05/25 00:23:51;;;;;;;3.38;1.20;;;13.20;99.90;;;;;;5032663;28;20355;-65
2022/05/25 00:26:17;;;;;;;2.08;1.25;;;13.20;99.90;;;;;;5032422;28;20029;-65
2022/05/25 00:28:43;;;;;;;2.38;0.98;;;13.20;99.90;;;;;;5032469;28;20274;-66
2022/05/25 00:31:08;;;;;;;2.88;1.10;;;13.20;99.90;;;;;;5032525;28;20087;-66
2022/05/25 00:33:35;;;;;;;2.65;1.10;;;13.20;99.90;;;;;;5032486;28;20413;-66
2022/05/25 00:36:01;;;;;;;3.03;1.10;;;13.20;99.90;;;;;;5032347;28;20025;-66
2022/05/25 00:38:27;;;;;;;4.63;1.25;;;13.10;99.90;;;;;;5032289;28;20037;-66
2022/05/25 00:40:54;;;;;;;2.95;1.15;;;13.20;99.90;;;;;;5032300;28;20045;-66
2022/05/25 00:43:20;;;;;;;2.75;1.08;;;13.20;99.90;;;;;;5032249;28;20029;-65
2022/05/25 00:45:53;;;;;;;5.03;1.20;;;13.10;99.90;;;;;;5032631;28;20385;-66
2022/05/25 00:48:40;;;;;;;2.28;1.00;;;13.10;99.90;;;;;;5032125;28;20034;-66
2022/05/25 00:51:13;;;;;;;5.07;1.17;;;13.20;99.90;;;;;;5032117;28;20500;-66
2022/05/25 00:53:55;;;;;;;2.70;1.25;;;13.10;99.90;;;;;;5032243;28;20033;-66
2022/05/25 00:56:23;;;;;;;2.00;1.10;;;13.20;99.90;;;;;;5031940;28;20489;-65
2022/05/25 00:59:04;;;;;;;3.60;1.20;;;13.10;99.90;;;;;;5032005;28;20033;-66
2022/05/25 01:01:30;;;;;;;3.38;1.30;;;13.10;99.90;;;;;;5031868;28;20029;-66
2022/05/25 01:03:56;;;;;;;5.93;1.30;;;13.10;99.90;;;;;;5031927;28;20441;-66
2022/05/25 01:06:49;;;;;;;3.35;1.30;;;13.10;99.90;;;;;;5031885;28;20057;-66
2022/05/25 01:09:35;;;;;;;8.93;1.60;;;13.10;99.90;;;;;;5031880;28;20040;-65
2022/05/25 01:12:22;;;;;;;2.13;1.13;;;13.10;99.90;;;;;;5031848;28;20029;-66
2022/05/25 01:14:54;;;;;;;2.40;1.10;;;13.10;99.90;;;;;;5031766;28;20084;-66
2022/05/25 01:17:46;;;;;;;2.28;1.20;;;13.00;99.90;;;;;;5031395;28;20040;-66
2022/05/25 01:20:35;;;;;;;2.83;1.33;;;13.00;99.90;;;;;;5031756;28;20025;-66
2022/05/25 01:23:22;;;;;;;2.15;1.10;;;13.00;99.90;;;;;;5031807;28;20482;-66
2022/05/25 01:26:29;;;;;;;2.42;1.23;;;13.00;99.90;;;;;;5031539;28;20037;-66
2022/05/25 01:29:18;;;;;;;3.55;1.15;;;13.00;99.90;;;;;;5008444;28;20556;-66
2022/05/25 01:31:57;;;;;;;3.95;1.20;;;13.00;99.90;;;;;;5031498;28;20116;-66
2022/05/25 01:34:40;;;;;;;2.78;1.30;;;13.10;99.90;;;;;;5030539;28;20034;-66
2022/05/25 01:37:16;;;;;;;2.05;1.30;;;13.00;99.90;;;;;;5031404;28;20108;-66
2022/05/25 01:39:58;;;;;;;4.43;1.33;;;13.00;99.90;;;;;;5031480;28;20031;-66
2022/05/25 01:42:34;;;;;;;4.13;1.60;;;12.90;99.90;;;;;;5031356;28;20513;-66
2022/05/25 01:45:08;;;;;;;4.70;1.45;;;12.90;99.90;;;;;;5031390;28;20051;-66
2022/05/25 01:47:37;;;;;;;3.67;1.48;;;12.90;99.90;;;;;;5031215;28;20025;-66
2022/05/25 01:50:11;;;;;;;3.38;1.58;;;12.90;99.90;;;;;;5031182;28;20386;-66
2022/05/25 01:52:44;;;;;;;3.65;1.73;;;12.90;99.90;;;;;;5031245;28;20474;-66
2022/05/25 01:55:17;;;;;;;4.50;1.33;;;12.90;99.90;;;;;;5031563;28;20037;-66
2022/05/25 01:57:47;;;;;;;4.55;1.63;;;12.90;99.90;;;;;;5031022;28;20056;-66
2022/05/25 02:00:33;;;;;;;5.82;1.70;;;12.80;99.90;;;;;;5029867;28;20333;-66
2022/05/25 02:06:10;;;;;;;5.45;2.53;;;12.80;99.90;;;;;;5030857;28;20029;-65
2022/05/25 02:08:51;;;;;;;5.78;2.25;;;12.80;99.90;;;;;;5030998;28;20409;-66
2022/05/25 02:11:27;;;;;;;7.05;2.72;;;12.90;99.90;;;;;;5030940;28;20552;-65
2022/05/25 02:14:12;;;;;;;7.78;3.40;;;12.80;99.90;;;;;;5031275;28;20445;-66
2022/05/25 02:16:41;;;;;;;9.32;3.78;;;12.80;99.90;;;;;;5033844;28;20053;-66
2022/05/25 02:19:20;;;;;;;11.00;3.47;;;12.70;99.90;;;;;;5035193;28;20033;-66
2022/05/25 02:21:52;;;;;;;;;;;12.80;99.90;;;;;;5035385;28;20459;-66
2022/05/25 02:24:29;;;;;;;8.05;3.33;;;12.80;99.90;;;;;;5034910;28;20002;-66
2022/05/25 02:27:05;;;;;;;7.93;3.40;;;12.80;99.90;;;;;;5033616;28;20273;-66
2022/05/25 02:29:33;;;;;;;7.85;3.72;;;12.70;99.90;;;;;;5034853;28;20068;-66
2022/05/25 02:32:22;;;;;;;8.00;3.20;;;12.70;99.90;;;;;;5034723;28;20033;-65
2022/05/25 02:34:51;;;;;;;6.57;3.20;;;12.70;99.90;;;;;;5029393;28;20167;-66
2022/05/25 02:37:20;;;;;;;9.77;3.42;;;12.70;99.90;;;;;;5034430;28;20091;-66
2022/05/25 02:39:49;;;;;;;5.65;3.30;;;12.70;99.90;;;;;;5034749;28;20041;-65
2022/05/25 02:42:15;;;;;;;;;;;12.70;99.90;;;;;;5033666;28;20029;-66
2022/05/25 02:44:43;;;;;;;7.00;3.28;;;12.70;99.90;;;;;;5034519;28;19956;-66
2022/05/25 02:47:10;;;;;;;6.68;2.70;;;12.60;99.90;;;;;;5034344;28;20029;-66
2022/05/25 02:49:37;;;;;;;5.57;2.75;;;12.60;99.90;;;;;;5034476;28;20029;-66
2022/05/25 02:52:05;;;;;;;7.57;2.65;;;12.60;99.90;;;;;;5034602;28;20408;-66
2022/05/25 02:54:31;;;;;;;4.78;2.58;;;12.60;99.90;;;;;;5034427;28;20029;-66
2022/05/25 02:56:57;;;;;;;3.92;2.47;;;12.60;99.90;;;;;;5033958;28;20103;-66
2022/05/25 02:59:23;;;;;;;4.95;2.47;;;12.60;99.90;;;;;;5034027;28;20108;-66
2022/05/25 03:01:49;;;;;;;4.50;2.38;;;12.60;99.90;;;;;;5034140;28;20104;-65
2022/05/25 03:04:15;;;;;;;8.48;2.58;;;12.60;99.90;;;;;;5034147;28;20445;-66
2022/05/25 03:06:41;;;;;;;4.65;2.75;;;12.60;99.90;;;;;;5033957;28;20499;-66
2022/05/25 03:09:07;;;;;;;6.68;2.88;;;12.60;99.90;;;;;;5033819;28;20036;-66
2022/05/25 03:11:33;;;;;;;4.73;2.47;;;12.60;99.90;;;;;;5034373;28;20401;-66
2022/05/25 03:13:59;;;;;;;6.13;2.83;;;12.60;99.90;;;;;;5034449;28;20116;-66
2022/05/25 03:16:25;;;;;;;6.75;2.67;;;12.60;99.90;;;;;;5032426;28;20368;-66
2022/05/25 03:18:51;;;;;;;6.53;2.58;;;12.50;99.90;;;;;;5033781;28;20448;-66
2022/05/25 03:21:18;;;;;;;4.88;2.63;;;12.60;99.90;;;;;;5033953;28;20037;-66
2022/05/25 03:23:44;;;;;;;6.07;2.88;;;12.60;99.90;;;;;;5033674;28;20025;-65
2022/05/25 03:26:11;;;;;;;7.80;3.05;;;12.50;99.90;;;;;;5033207;28;20059;-66
2022/05/25 03:28:37;;;;;;;4.85;3.00;;;12.50;99.90;;;;;;5032577;28;20095;-66
2022/05/25 03:31:04;;;;;;;7.07;3.03;;;12.50;99.90;;;;;;5033752;28;20116;-66
2022/05/25 03:33:31;;;;;;;7.82;3.22;;;12.40;99.90;;;;;;5033554;28;20030;-66
2022/05/25 03:35:58;;;;;;;5.75;3.20;;;12.50;99.90;;;;;;5033462;28;20025;-66
2022/05/25 03:38:24;;;;;;;7.20;2.78;;;12.50;99.90;;;;;;5033454;28;20445;-66
2022/05/25 03:40:50;;;;;;;7.18;3.08;;;12.50;99.90;;;;;;5033259;28;20029;-66
2022/05/25 03:43:18;;;;;;;6.47;2.88;;;12.50;99.90;;;;;;5033633;28;20197;-65
2022/05/25 03:45:46;;;;;;;4.78;2.83;;;12.50;99.90;;;;;;5033334;28;20350;-66
2022/05/25 03:48:12;;;;;;;8.40;3.30;;;12.50;99.90;;;;;;5033075;28;20037;-66
2022/05/25 03:50:40;;;;;;;6.10;3.13;;;12.50;99.90;;;;;;5033142;28;20063;-66
2022/05/25 03:53:08;;;;;;;7.57;3.10;;;12.50;99.90;;;;;;5033172;28;20134;-66
2022/05/25 03:55:35;;;;;;;6.07;3.00;;;12.60;99.90;;;;;;5033066;28;20033;-66
2022/05/25 03:58:02;;;;;;;7.03;3.58;;;12.60;99.90;;;;;;5033208;28;20030;-65
2022/05/25 04:00:29;;;;;;;8.45;3.08;;;12.50;99.90;;;;;;5032984;28;20084;-66
2022/05/25 04:02:57;;;;;;;6.18;2.80;;;12.50;99.90;;;;;;5031644;28;20036;-66
2022/05/25 04:05:25;;;;;;;8.18;3.03;;;12.60;99.90;;;;;;5031910;28;20473;-66
2022/05/25 04:07:51;;;;;;;5.32;2.90;;;12.60;99.90;;;;;;5032679;28;20280;-66
2022/05/25 04:10:19;;;;;;;5.63;2.80;;;12.70;99.90;;;;;;5032687;28;20422;-66
2022/05/25 04:12:46;;;;;;;6.97;3.25;;;12.70;99.90;;;;;;5032963;28;20036;-66
2022/05/25 04:15:15;;;;;;;6.80;2.90;;;12.70;99.90;;;;;;5032909;28;20025;-66
2022/05/25 04:17:41;;;;;;;;;;;12.70;99.90;;;;;;5033172;28;20088;-66
2022/05/25 04:20:08;;;;;;;7.50;3.28;;;12.80;99.90;;;;;;5014566;28;20755;-66
2022/05/25 04:22:36;;;;;;;7.88;3.42;;;12.90;99.90;;;;;;5032749;28;20474;-66
2022/05/25 04:25:07;;;;;;;8.82;3.40;;;12.90;99.90;;;;;;5032573;28;20025;-66
2022/05/25 04:27:34;;;;;;;9.93;3.50;;;12.90;99.90;;;;;;5032476;28;20079;-66
2022/05/25 04:30:00;;;;;;;6.20;3.30;;;13.00;99.90;;;;;;5031204;28;20036;-66
2022/05/25 04:32:26;;;;;;;8.05;3.65;;;13.00;99.90;;;;;;5032446;28;20026;-66
2022/05/25 04:34:53;;;;;;;7.28;3.17;;;13.00;99.90;;;;;;5032521;28;20047;-66
2022/05/25 04:40:05;;;;;;;7.00;3.70;;;13.20;99.90;;;;;;5031876;28;20493;-66
2022/05/25 04:42:30;;;;;;;7.00;3.63;;;13.20;99.90;;;;;;5031115;28;20041;-66
2022/05/25 04:45:00;;;;;;;7.93;3.67;;;13.20;99.90;;;;;;5032196;28;20033;-66
2022/05/25 04:47:32;;;;;;;11.10;4.22;;;13.20;99.90;;;;;;5141103;22;20167;-65
2022/05/25 04:49:58;;;;;;;7.25;3.90;;;13.30;99.90;;;;;;5031060;28;20405;-65
2022/05/25 04:52:24;;;;;;;9.95;4.20;;;13.30;99.90;;;;;;5032343;28;20032;-65
2022/05/25 04:54:51;;;;;;;8.20;3.97;;;13.30;99.90;;;;;;5032331;28;20122;-65
2022/05/25 04:57:19;;;;;;;13.20;5.03;;;13.30;99.90;;;;;;5032020;28;20044;-64
2022/05/25 04:59:50;;;;;;;8.30;4.40;;;13.30;99.90;;;;;;5032000;28;20111;-65
2022/05/25 05:02:17;;;;;;;17.00;7.05;;;13.30;99.90;;;;;;5032229;28;20032;-65
2022/05/25 05:04:44;;;;;;;10.63;5.32;;;13.30;99.90;;;;;;5032089;28;20035;-65
2022/05/25 05:07:11;;;;;;;14.15;4.80;;;13.40;99.90;;;;;;5031803;28;20474;-65
2022/05/25 05:09:39;;;;;;;11.98;5.40;;;13.40;99.90;;;;;;5032022;28;20043;-66
2022/05/25 05:12:06;;;;;;;12.02;5.40;;;13.40;99.90;;;;;;5030673;28;20033;-65
2022/05/25 05:14:32;;;;;;;12.75;5.50;;;13.40;99.90;;;;;;5031787;28;20091;-65
2022/05/25 05:17:00;;;;;;;9.70;4.68;;;13.50;99.90;;;;;;5031410;28;20037;-65
2022/05/25 05:19:36;;;;;;;10.60;4.80;;;13.50;99.90;;;;;;5031756;28;20029;-65
2022/05/25 05:22:09;;;;;;;12.98;5.00;;;13.60;99.90;;;;;;5030341;28;20029;-65
2022/05/25 05:24:36;;;;;;;10.40;5.45;;;13.60;99.90;;;;;;5031798;28;20048;-65
2022/05/25 05:27:02;;;;;;;12.68;6.88;;;13.60;99.90;;;;;;5031696;28;20083;-65
2022/05/25 05:29:30;;;;;;;13.90;5.88;;;13.70;99.90;;;;;;5031373;28;20025;-66
2022/05/25 05:31:57;;;;;;;13.18;5.57;;;13.70;99.90;;;;;;5031460;28;20041;-66
2022/05/25 05:34:27;;;;;;;14.15;6.10;;;13.70;99.90;;;;;;5031858;28;20030;-66
2022/05/25 05:36:59;;;;;;;10.27;6.00;;;13.80;99.90;;;;;;5031147;28;20044;-66
2022/05/25 05:39:29;;;;;;;12.13;6.15;;;13.80;99.90;;;;;;5031409;28;20026;-66
2022/05/25 05:42:05;;;;;;;;;;;13.80;99.90;;;;;;5031693;28;20504;-65
2022/05/25 05:44:37;;;;;;;14.18;5.40;;;13.90;99.90;;;;;;5031427;28;19959;-66
2022/05/25 05:47:06;;;;;;;10.75;5.47;;;13.80;99.90;;;;;;5031098;28;20041;-65
2022/05/25 05:49:34;;;;;;;18.33;7.03;;;13.90;99.90;;;;;;5030866;28;20030;-66
2022/05/25 05:52:01;;;;;;;21.58;9.82;;;13.90;99.90;;;;;;5030887;28;20481;-65
2022/05/25 05:54:27;;;;;;;19.88;9.65;;;13.90;99.90;;;;;;5031189;28;20037;-66
2022/05/25 05:56:53;;;;;;;22.52;9.98;;;14.00;99.90;;;;;;5031011;28;20104;-66
2022/05/25 05:59:19;;;;;;;18.48;9.07;;;14.00;99.90;;;;;;5031042;28;20030;-65
2022/05/25 06:01:45;;;;;;;15.05;7.15;;;14.00;99.90;;;;;;5031576;28;20037;-66
2022/05/25 06:04:12;;;;;;;13.50;5.68;;;14.10;99.90;;;;;;5031059;28;20029;-65
2022/05/25 06:06:38;;;;;;;11.68;5.40;;;14.10;99.90;;;;;;5030960;28;20095;-65
2022/05/25 06:09:05;;;;;;;11.98;5.15;;;14.20;99.90;;;;;;5030821;28;20037;-65
2022/05/25 06:11:32;;;;;;;13.48;5.45;;;14.20;99.90;;;;;;5031107;28;20091;-66
2022/05/25 06:13:58;;;;;;;11.18;5.65;;;14.20;99.90;;;;;;5030899;28;20108;-66
2022/05/25 06:19:27;;;;;;;14.30;5.80;;;14.30;99.90;;;;;;5030736;28;20120;-66
2022/05/25 06:22:02;;;;;;;14.85;5.18;;;14.30;99.90;;;;;;5031048;28;20021;-65
2022/05/25 06:24:31;;;;;;;14.85;4.40;;;14.30;99.90;;;;;;5031136;28;20387;-66
2022/05/25 06:26:57;;;;;;;11.48;4.65;;;14.40;99.90;;;;;;5030749;28;20025;-66
2022/05/25 06:29:23;;;;;;;11.35;5.18;;;14.40;99.90;;;;;;5030730;28;20067;-66
2022/05/25 06:31:49;;;;;;;13.15;5.75;;;14.40;99.90;;;;;;5030769;28;20060;-65
2022/05/25 06:34:16;;;;;;;9.82;4.32;;;14.40;99.90;;;;;;5031097;28;20055;-66
2022/05/25 06:36:43;;;;;;;9.98;4.18;;;14.40;99.90;;;;;;5030769;28;20383;-66
2022/05/25 06:39:09;;;;;;;5.75;3.20;;;14.40;99.90;;;;;;5030558;28;20041;-66
2022/05/25 06:41:35;;;;;;;7.75;3.35;;;14.30;99.90;;;;;;5030754;28;20105;-66
2022/05/25 06:44:04;;;;;;;8.27;3.13;;;14.30;99.90;;;;;;5029640;28;20091;-64
2022/05/25 06:46:30;;;;;;;7.65;3.17;;;14.30;99.90;;;;;;5030533;28;20264;-64
2022/05/25 06:48:59;;;;;;;9.63;4.05;;;14.40;99.90;;;;;;5030452;28;20036;-64
2022/05/25 06:51:30;;;;;;;10.05;3.38;;;14.40;99.90;;;;;;5030609;28;20382;-65
2022/05/25 06:53:57;;;;;;;15.75;5.65;;;14.50;99.90;;;;;;5030750;28;20037;-64
2022/05/25 06:56:24;;;;;;;10.68;4.18;;;14.50;99.90;;;;;;5030364;28;20061;-64
2022/05/25 06:58:52;;;;;;;9.45;4.07;;;14.60;99.90;;;;;;5030556;28;20033;-63
2022/05/25 07:01:22;;;;;;;7.65;2.83;;;14.60;99.90;;;;;;5031502;28;20429;-65
2022/05/25 07:03:49;;;;;;;9.07;3.50;;;14.50;99.90;;;;;;5034378;28;20576;-66
2022/05/25 07:06:17;;;;;;;10.75;3.50;;;14.60;99.90;;;;;;5034074;28;20030;-66
2022/05/25 07:08:44;;;;;;;10.18;3.97;;;14.60;99.90;;;;;;5034495;28;20025;-66
2022/05/25 07:11:11;;;;;;;15.10;4.00;;;14.60;99.90;;;;;;5034442;28;20041;-64
2022/05/25 07:13:37;;;;;;;8.98;3.50;;;14.60;99.90;;;;;;5034076;28;20405;-64
2022/05/25 07:16:07;;;;;;;11.02;3.33;;;14.70;99.90;;;;;;5033936;28;20504;-64
2022/05/25 07:18:34;;;;;;;9.27;3.47;;;14.70;99.90;;;;;;5033945;28;20083;-63
2022/05/25 07:21:14;;;;;;;7.40;2.22;;;14.80;99.90;;;;;;5034047;28;20035;-64
2022/05/25 07:23:42;;;;;;;7.57;2.63;;;14.90;99.90;;;;;;5033919;28;20061;-64
2022/05/25 07:26:09;;;;;;;9.10;2.85;;;14.90;99.90;;;;;;5033820;28;20040;-64
2022/05/25 07:28:36;;;;;;;6.28;2.60;;;14.90;99.90;;;;;;5033581;28;20030;-64
2022/05/25 07:31:13;;;;;;;7.75;3.00;;;15.00;99.90;;;;;;5033881;28;20470;-64
2022/05/25 07:33:42;;;;;;;8.25;3.15;;;15.00;99.90;;;;;;5033840;28;20033;-64
2022/05/25 07:36:10;;;;;;;8.82;2.70;;;15.10;99.90;;;;;;5033258;28;20029;-63
2022/05/25 07:38:41;;;;;;;6.15;2.60;;;15.10;99.90;;;;;;5033455;28;20398;-64
2022/05/25 07:41:08;;;;;;;5.47;2.33;;;15.10;99.90;;;;;;5033799;28;20021;-65
2022/05/25 07:43:41;;;;;;;5.78;2.03;;;15.20;99.90;;;;;;5033754;28;20360;-64
2022/05/25 07:46:07;;;;;;;9.00;3.53;;;15.20;99.90;;;;;;5033422;28;20498;-63
2022/05/25 07:48:34;;;;;;;9.25;2.60;;;15.20;99.90;;;;;;5033202;28;20049;-64
2022/05/25 07:51:00;;;;;;;5.20;2.22;;;15.30;99.90;;;;;;5033301;28;20037;-64
2022/05/25 07:56:11;;;;;;;5.57;1.73;;;15.30;99.90;;;;;;5032996;28;20042;-67
2022/05/25 07:58:37;;;;;;;7.47;1.95;;;15.30;99.90;;;;;;5033583;28;20106;-64
2022/05/25 08:01:10;;;;;;;4.40;1.65;;;15.40;99.90;;;;;;5033221;28;20030;-63
2022/05/25 08:06:40;;;;;;;5.32;1.73;;;15.40;99.90;;;;;;5030329;28;20036;-64
2022/05/25 08:09:06;;;;;;;6.90;1.70;;;15.40;99.90;;;;;;5030565;28;20030;-64
2022/05/25 08:11:34;;;;;;;3.80;1.52;;;15.50;99.90;;;;;;5031739;28;20128;-65
2022/05/25 08:14:00;;;;;;;4.60;1.40;;;15.50;99.90;;;;;;5032380;28;20482;-64
2022/05/25 08:16:26;;;;;;;4.05;1.40;;;15.50;99.90;;;;;;5032644;28;20358;-64
2022/05/25 08:18:53;;;;;;;3.85;1.67;;;15.60;99.90;;;;;;5032823;28;20036;-64
2022/05/25 08:21:18;;;;;;;5.85;1.73;;;15.60;99.90;;;;;;5032845;28;20025;-65
2022/05/25 08:23:44;;;;;;;3.40;1.17;;;15.70;99.90;;;;;;5033264;28;20058;-65
2022/05/25 08:26:10;;;;;;;3.08;0.90;;;15.70;99.90;;;;;;5033199;28;20033;-66
2022/05/25 08:28:36;;;;;;;4.18;1.70;;;15.70;99.90;;;;;;5032629;28;20033;-67
2022/05/25 08:31:02;;;;;;;2.85;1.33;;;15.80;99.90;;;;;;5032973;28;20406;-66
2022/05/25 08:33:28;;;;;;;4.13;1.25;;;15.90;99.90;;;;;;5032718;28;20036;-67
2022/05/25 08:35:54;;;;;;;5.32;1.60;;;15.90;99.90;;;;;;5032791;28;20428;-65
2022/05/25 08:38:21;;;;;;;5.65;1.40;;;15.90;99.10;;;;;;5032423;28;20025;-66
2022/05/25 08:40:48;;;;;;;3.92;1.55;;;16.00;99.60;;;;;;5032407;28;20437;-66
2022/05/25 08:43:24;;;;;;;4.05;1.00;;;16.00;99.60;;;;;;5032539;28;20584;-66
2022/05/25 08:46:01;;;;;;;4.35;1.30;;;16.10;98.70;;;;;;5032491;28;20116;-64
2022/05/25 08:48:28;;;;;;;4.68;1.20;;;16.10;98.50;;;;;;5031039;28;20052;-64
2022/05/25 08:51:00;;;;;;;3.45;1.10;;;16.20;98.50;;;;;;5032216;28;20038;-64
2022/05/25 08:53:27;;;;;;;4.25;1.58;;;16.20;98.60;;;;;;5030986;28;20061;-66
2022/05/25 08:56:25;;;;;;;5.28;1.40;;;16.20;98.30;;;;;;5031880;28;20030;-67
2022/05/25 08:58:57;;;;;;;5.03;1.90;;;16.20;97.70;;;;;;5009408;28;20068;-66
2022/05/25 09:01:43;;;;;;;4.38;1.60;;;16.20;97.80;;;;;;5032552;28;20268;-63
2022/05/25 09:04:46;;;;;;;5.47;1.40;;;16.30;97.20;;;;;;5032098;28;20021;-64
2022/05/25 09:07:29;;;;;;;3.35;1.00;;;16.30;96.90;;;;;;5032126;28;20041;-64
2022/05/25 09:09:55;;;;;;;4.75;1.50;;;16.30;97.30;;;;;;5031942;28;20108;-64
2022/05/25 09:12:41;;;;;;;3.80;1.15;;;16.30;97.50;;;;;;5031775;28;20064;-64
2022/05/25 09:15:16;;;;;;;4.35;1.35;;;16.40;97.10;;;;;;5032039;28;20497;-65
2022/05/25 09:18:09;;;;;;;3.00;1.13;;;16.40;96.80;;;;;;5031740;28;20031;-65
2022/05/25 09:20:44;;;;;;;2.92;1.30;;;16.50;96.50;;;;;;5028530;28;20037;-64
2022/05/25 09:23:11;;;;;;;3.08;1.10;;;16.60;96.10;;;;;;5031833;28;20025;-65
2022/05/25 09:25:40;;;;;;;2.58;1.05;;;16.60;96.50;;;;;;5031606;28;20486;-65
2022/05/25 09:28:12;;;;;;;3.17;1.42;;;16.60;96.60;;;;;;5031714;28;20030;-64
2022/05/25 09:30:42;;;;;;;2.00;1.00;;;16.60;96.30;;;;;;5031860;28;20037;-65
2022/05/25 09:33:44;;;;;;;5.07;1.23;;;16.60;96.50;;;;;;5031574;28;20037;-64
2022/05/25 09:36:25;;;;;;;6.70;2.22;;;16.60;96.10;;;;;;5028497;28;20434;-64
2022/05/25 09:39:23;;;;;;;3.35;1.30;;;16.60;96.00;;;;;;5031518;28;20148;-65
2022/05/25 09:41:55;;;;;;;6.53;1.60;;;16.60;95.70;;;;;;5031539;28;20033;-65
2022/05/25 09:44:23;;;;;;;6.47;1.40;;;16.70;95.30;;;;;;5031392;28;20090;-65
2022/05/25 09:46:56;;;;;;;3.40;1.00;;;16.70;95.60;;;;;;5031458;28;20067;-65
2022/05/25 09:49:31;;;;;;;3.47;1.02;;;16.70;95.70;;;;;;5031470;28;20378;-64
2022/05/25 09:52:02;;;;;;;3.22;0.95;;;16.70;95.30;;;;;;5031201;28;20033;-65
2022/05/25 09:54:40;;;;;;;4.63;2.35;;;16.80;95.20;;;;;;5031617;28;20029;-65
2022/05/25 09:57:17;;;;;;;4.13;1.50;;;16.90;95.30;;;;;;5031073;28;20037;-65
2022/05/25 09:59:52;;;;;;;5.55;1.20;;;17.00;94.80;;;;;;5031147;28;20021;-65
2022/05/25 10:02:56;;;;;;;4.55;1.63;;;16.90;94.70;;;;;;5031140;28;20490;-65
2022/05/25 10:05:30;;;;;;;4.25;1.42;;;16.90;94.40;;;;;;4989463;28;20422;-64
2022/05/25 10:08:08;;;;;;;5.28;1.23;;;16.80;95.00;;;;;;4989140;28;20038;-65
2022/05/25 10:10:43;;;;;;;5.38;1.80;;;16.90;95.10;;;;;;5014089;28;20049;-64
2022/05/25 10:13:20;;;;;;;3.10;1.30;;;17.00;94.60;;;;;;5031249;28;20025;-65
2022/05/25 10:15:51;;;;;;;3.72;1.83;;;17.00;94.80;;;;;;5029589;28;20033;-65
2022/05/25 10:18:34;;;;;;;4.93;2.35;;;17.00;94.60;;;;;;5030961;28;20056;-65
2022/05/25 10:21:02;;;;;;;4.60;1.40;;;17.10;95.00;;;;;;5030932;28;20124;-65
2022/05/25 10:23:29;;;;;;;2.95;1.50;;;17.10;94.60;;;;;;5030889;28;20025;-64
2022/05/25 10:26:19;;;;;;;5.40;1.52;;;17.10;94.70;;;;;;5030864;28;20561;-64
2022/05/25 10:28:58;;;;;;;2.67;1.48;;;17.10;94.50;;;;;;5031092;28;20393;-65
2022/05/25 10:37:29;;;;;;;4.05;1.80;;;17.10;93.60;;;;;;5032491;28;20109;-65
2022/05/25 10:39:55;;;;;;;2.63;1.10;;;17.20;93.60;;;;;;5017099;28;20042;-65
2022/05/25 10:42:29;;;;;;;4.07;1.17;;;17.20;93.90;;;;;;5034918;28;20029;-65
2022/05/25 10:45:18;;;;;;;2.63;1.10;;;17.30;93.70;;;;;;5035082;28;20037;-65
2022/05/25 10:50:55;;;;;;;5.80;1.35;;;17.40;92.00;;;;;;5032088;28;19921;-65
2022/05/25 10:53:41;;;;;;;2.47;0.80;;;17.40;91.90;;;;;;5034572;28;20371;-65
2022/05/25 10:56:35;;;;;;;3.55;1.10;;;17.40;91.60;;;;;;5032942;28;20029;-65
2022/05/25 10:59:19;;;;;;;3.20;1.17;;;17.50;92.40;;;;;;5034098;28;20117;-65
2022/05/25 11:02:16;;;;;;;3.83;1.58;;;17.60;91.40;;;;;;5034238;28;20475;-65
2022/05/25 11:05:00;;;;;;;2.22;1.35;;;17.60;91.20;;;;;;5034441;28;20034;-65
2022/05/25 11:07:33;;;;;;;5.57;1.05;;;17.70;90.80;;;;;;5034102;28;20394;-65
2022/05/25 11:10:20;;;;;;;3.08;0.80;;;17.70;91.10;;;;;;5033979;28;20087;-65
2022/05/25 11:13:04;;;;;;;3.10;1.08;;;17.80;91.10;;;;;;5034115;28;20041;-65
2022/05/25 11:15:51;;;;;;;3.85;0.95;;;17.80;91.10;;;;;;5033751;28;20528;-65
2022/05/25 11:18:47;;;;;;;2.28;0.82;;;17.80;91.60;;;;;;5033802;28;20099;-65
2022/05/25 11:21:28;;;;;;;3.28;0.95;;;17.80;91.50;;;;;;5033845;28;20033;-65
2022/05/25 11:24:31;;;;;;;3.03;1.10;;;17.70;91.10;;;;;;5033891;28;20120;-65
2022/05/25 11:27:22;;;;;;;4.18;0.80;;;17.70;91.10;;;;;;5033573;28;20030;-65
2022/05/25 11:30:12;;;;;;;2.70;0.80;;;17.60;90.90;;;;;;5033445;28;20029;-65
2022/05/25 11:32:53;;;;;;;2.13;0.80;;;17.70;91.40;;;;;;5033613;28;20045;-65
2022/05/25 11:35:26;;;;;;;1.92;0.60;;;17.70;91.00;;;;;;5033909;28;20116;-65
2022/05/25 11:38:17;;;;;;;4.13;1.30;;;17.80;90.40;;;;;;5033192;28;20108;-65
2022/05/25 11:41:09;;;;;;;2.85;1.00;;;17.90;90.00;;;;;;5033328;28;20059;-65
2022/05/25 11:44:17;;;;;;;2.38;1.13;;;18.00;89.50;;;;;;5033734;28;20112;-65
2022/05/25 11:46:46;;;;;;;2.60;1.00;;;18.00;90.00;;;;;;5032042;28;20025;-65
2022/05/25 11:49:34;;;;;;;3.97;0.80;;;18.10;90.00;;;;;;5032077;28;20033;-65
2022/05/25 11:52:14;;;;;;;2.35;1.00;;;18.10;89.80;;;;;;5033302;28;20036;-65
2022/05/25 11:54:59;;;;;;;3.83;1.05;;;18.20;88.60;;;;;;5033144;28;20037;-65
2022/05/25 11:57:45;;;;;;;3.50;1.10;;;18.20;89.30;;;;;;5032892;28;20033;-65
2022/05/25 12:00:36;;;;;;;5.68;0.80;;;18.20;87.50;;;;;;5032997;28;20091;-65
2022/05/25 12:03:08;;;;;;;3.22;0.80;;;18.30;87.90;;;;;;5033159;28;20029;-65
2022/05/25 12:06:04;;;;;;;3.42;1.05;;;18.40;88.00;;;;;;5033058;28;20079;-65
2022/05/25 12:08:39;;;;;;;2.05;1.10;;;18.50;87.80;;;;;;5032944;28;20537;-65
2022/05/25 12:11:20;;;;;;;3.25;0.90;;;18.50;86.60;;;;;;5032980;28;20022;-65
2022/05/25 12:13:54;;;;;;;2.65;0.73;;;18.60;86.60;;;;;;5032861;28;20036;-65
2022/05/25 12:16:29;;;;;;;2.58;0.60;;;18.70;85.80;;;;;;5032570;28;20108;-65
2022/05/25 12:19:06;;;;;;;5.63;0.70;;;18.70;85.90;;;;;;5031604;28;20108;-65
2022/05/25 12:21:51;;;;;;;2.67;1.30;;;18.60;85.60;;;;;;5032937;28;20021;-65
2022/05/25 12:24:35;;;;;;;7.88;1.52;;;18.60;85.60;;;;;;5031491;28;20222;-65
2022/05/25 12:27:05;;;;;;;1.92;1.00;;;18.70;86.60;;;;;;5032735;28;20034;-65
2022/05/25 12:29:36;;;;;;;6.32;1.30;;;18.80;85.90;;;;;;5032491;28;20061;-65
2022/05/25 12:32:05;;;;;;;4.78;1.10;;;18.90;85.90;;;;;;5031354;28;20030;-65
2022/05/25 12:34:52;;;;;;;2.35;1.25;;;18.80;85.10;;;;;;5032414;28;20040;-65
2022/05/25 12:37:21;;;;;;;2.70;1.08;;;18.70;84.20;;;;;;5031068;28;20436;-65
2022/05/25 12:39:47;;;;;;;4.20;1.33;;;18.70;85.60;;;;;;5032319;28;20490;-65
2022/05/25 12:42:22;;;;;;;6.03;1.50;;;18.60;84.30;;;;;;5032405;28;20072;-65
2022/05/25 12:50:41;;;;;;;2.20;0.90;;;18.40;84.60;;;;;;5031989;28;20088;-65
2022/05/25 12:53:28;;;;;;;3.30;0.90;;;18.40;84.60;;;;;;5032248;28;20067;-65
2022/05/25 12:56:03;;;;;;;4.95;1.17;;;18.40;84.20;;;;;;5031848;28;20030;-65
2022/05/25 12:58:48;;;;;;;2.90;1.20;;;18.30;84.30;;;;;;5032181;28;20025;-65
2022/05/25 13:01:14;;;;;;;5.85;1.52;;;18.30;85.30;;;;;;5031994;28;20052;-65
2022/05/25 13:03:44;;;;;;;3.55;1.42;;;18.30;85.80;;;;;;5031901;28;20469;-65
2022/05/25 13:06:11;;;;;;;4.28;1.20;;;18.30;86.60;;;;;;5031706;28;20385;-65
2022/05/25 13:08:49;;;;;;;5.80;1.55;;;18.30;87.10;;;;;;5031764;28;20041;-65
2022/05/25 13:11:38;;;;;;;2.92;1.30;;;18.30;87.80;;;;;;5031894;28;20049;-65
2022/05/25 13:14:24;;;;;;;4.50;1.17;;;18.40;88.10;;;;;;5031733;28;20040;-65
2022/05/25 13:16:58;;;;;;;3.20;0.60;;;18.50;86.00;;;;;;5031364;28;20052;-65
2022/05/25 13:19:32;;;;;;;3.35;0.70;;;18.60;84.50;;;;;;5031648;28;20498;-65
2022/05/25 13:22:06;;;;;;;3.97;1.10;;;18.60;82.80;;;;;;5031426;28;20053;-65
2022/05/25 13:24:41;;;;;;;5.10;0.80;;;18.60;83.50;;;;;;5031662;28;20052;-65
2022/05/25 13:27:21;;;;;;;2.58;0.75;;;18.70;83.50;;;;;;5031640;28;20402;-65
2022/05/25 13:30:18;;;;;;;3.40;0.80;;;18.70;83.50;;;;;;5031273;28;20087;-65
2022/05/25 13:33:00;;;;;;;2.78;0.88;;;18.90;84.30;;;;;;5031543;28;20029;-65
2022/05/25 13:35:41;;;;;;;2.70;0.60;;;19.00;81.20;;;;;;5031335;28;20037;-65
2022/05/25 13:38:41;;;;;;;6.25;0.80;;;19.20;79.60;;;;;;5031402;28;20116;-65
2022/05/25 13:41:13;;;;;;;2.47;0.80;;;19.20;80.00;;;;;;5031274;28;20617;-65
2022/05/25 13:44:04;;;;;;;3.40;1.08;;;19.20;77.80;;;;;;5031423;28;20045;-65
2022/05/25 13:46:41;;;;;;;1.38;0.55;;;19.20;77.80;;;;;;5031023;28;20121;-65